sensor_id;sensor_type;location;lat;lon;timestamp;pressure;altitude;pressure_sealevel;temperature;humidity
57668;BME280;43499;52.366;12.912;2023-05-25T00:00:50;102023.13;;;8.60;94.01
57668;BME280;43499;52.366;12.912;2023-05-25T00:01:51;102014.66;;;8.46;94.62
57668;BME280;43499;52.366;12.912;2023-05-25T00:02:54;102006.41;;;8.51;94.71
57668;BME280;43499;52.366;12.912;2023-05-25T00:03:55;102010.69;;;8.50;94.93
57668;BME280;43499;52.366;12.912;2023-05-25T00:04:56;101943.47;;;8.18;94.58
57668;BME280;43499;52.366;12.912;2023-05-25T00:05:59;102026.25;;;8.64;94.28
57668;BME280;43499;52.366;12.912;2023-05-25T00:07:03;102008.06;;;8.50;94.52
57668;BME280;43499;52.366;12.912;2023-05-25T00:08:05;102029.13;;;8.59;94.25
57668;BME280;43499;52.366;12.912;2023-05-25T00:09:06;102029.91;;;8.58;94.51
57668;BME280;43499;52.366;12.912;2023-05-25T00:10:08;102036.66;;;8.56;94.91
57668;BME280;43499;52.366;12.912;2023-05-25T00:11:09;102028.78;;;8.56;94.67
57668;BME280;43499;52.366;12.912;2023-05-25T00:12:10;102025.25;;;8.55;95.18
57668;BME280;43499;52.366;12.912;2023-05-25T00:13:11;102034.19;;;8.57;95.00
57668;BME280;43499;52.366;12.912;2023-05-25T00:14:12;102015.94;;;8.50;95.06
57668;BME280;43499;52.366;12.912;2023-05-25T00:15:13;101995.03;;;8.43;95.12
57668;BME280;43499;52.366;12.912;2023-05-25T00:16:14;102031.91;;;8.60;95.12
57668;BME280;43499;52.366;12.912;2023-05-25T00:17:16;102025.75;;;8.60;94.86
57668;BME280;43499;52.366;12.912;2023-05-25T00:18:18;102005.47;;;8.50;94.74
57668;BME280;43499;52.366;12.912;2023-05-25T00:19:19;102028.38;;;8.60;94.43
57668;BME280;43499;52.366;12.912;2023-05-25T00:20:20;102025.56;;;8.58;94.85
57668;BME280;43499;52.366;12.912;2023-05-25T00:21:22;102028.19;;;8.58;95.15
57668;BME280;43499;52.366;12.912;2023-05-25T00:22:24;102026.50;;;8.59;94.63
57668;BME280;43499;52.366;12.912;2023-05-25T00:23:28;102019.31;;;8.49;94.79
57668;BME280;43499;52.366;12.912;2023-05-25T00:24:30;102038.50;;;8.57;95.05
57668;BME280;43499;52.366;12.912;2023-05-25T00:25:31;102029.03;;;8.50;95.00
57668;BME280;43499;52.366;12.912;2023-05-25T00:26:35;102036.16;;;8.51;95.30
57668;BME280;43499;52.366;12.912;2023-05-25T00:27:36;102021.81;;;8.40;95.55
57668;BME280;43499;52.366;12.912;2023-05-25T00:28:37;102012.94;;;8.31;95.47
57668;BME280;43499;52.366;12.912;2023-05-25T00:29:38;102030.47;;;8.39;95.89
57668;BME280;43499;52.366;12.912;2023-05-25T00:30:42;102033.41;;;8.42;95.82
57668;BME280;43499;52.366;12.912;2023-05-25T00:31:43;102039.38;;;8.41;96.11
57668;BME280;43499;52.366;12.912;2023-05-25T00:32:44;102003.31;;;8.23;96.10
57668;BME280;43499;52.366;12.912;2023-05-25T00:33:45;102024.94;;;8.29;96.47
57668;BME280;43499;52.366;12.912;2023-05-25T00:34:46;101999.59;;;8.21;96.08
57668;BME280;43499;52.366;12.912;2023-05-25T00:35:47;102021.16;;;8.34;96.29
57668;BME280;43499;52.366;12.912;2023-05-25T00:36:50;102003.72;;;8.18;95.89
57668;BME280;43499;52.366;12.912;2023-05-25T00:37:51;102032.38;;;8.33;97.23
57668;BME280;43499;52.366;12.912;2023-05-25T00:38:52;102037.22;;;8.37;96.47
57668;BME280;43499;52.366;12.912;2023-05-25T00:39:53;102024.16;;;8.30;96.38
57668;BME280;43499;52.366;12.912;2023-05-25T00:40:55;102031.78;;;8.36;96.84
57668;BME280;43499;52.366;12.912;2023-05-25T00:42:01;102021.22;;;8.27;96.93
57668;BME280;43499;52.366;12.912;2023-05-25T00:43:02;102037.28;;;8.30;97.13
57668;BME280;43499;52.366;12.912;2023-05-25T00:44:03;102017.75;;;8.19;96.69
57668;BME280;43499;52.366;12.912;2023-05-25T00:45:04;102023.66;;;8.25;96.87
57668;BME280;43499;52.366;12.912;2023-05-25T00:46:08;102033.22;;;8.25;96.63
57668;BME280;43499;52.366;12.912;2023-05-25T00:47:11;102032.63;;;8.27;96.70
57668;BME280;43499;52.366;12.912;2023-05-25T00:48:12;102038.97;;;8.29;97.20
57668;BME280;43499;52.366;12.912;2023-05-25T00:49:14;102003.56;;;8.17;96.76
57668;BME280;43499;52.366;12.912;2023-05-25T00:50:17;102023.16;;;8.21;97.34
57668;BME280;43499;52.366;12.912;2023-05-25T00:51:22;102021.03;;;8.25;97.05
57668;BME280;43499;52.366;12.912;2023-05-25T00:52:24;102020.72;;;8.22;97.36
57668;BME280;43499;52.366;12.912;2023-05-25T00:53:26;102018.25;;;8.24;97.26
57668;BME280;43499;52.366;12.912;2023-05-25T00:54:27;101991.06;;;8.14;97.67
57668;BME280;43499;52.366;12.912;2023-05-25T00:55:30;102017.66;;;8.26;97.40
57668;BME280;43499;52.366;12.912;2023-05-25T00:56:37;102001.44;;;8.22;97.60
57668;BME280;43499;52.366;12.912;2023-05-25T00:57:40;102028.59;;;8.38;97.52
57668;BME280;43499;52.366;12.912;2023-05-25T00:58:41;102023.59;;;8.32;97.50
57668;BME280;43499;52.366;12.912;2023-05-25T00:59:49;102008.81;;;8.33;97.11
57668;BME280;43499;52.366;12.912;2023-05-25T01:00:53;102023.16;;;8.37;96.86
57668;BME280;43499;52.366;12.912;2023-05-25T01:01:56;102023.34;;;8.38;97.34
57668;BME280;43499;52.366;12.912;2023-05-25T01:02:59;102028.25;;;8.35;96.66
57668;BME280;43499;52.366;12.912;2023-05-25T01:04:02;102030.34;;;8.30;97.25
57668;BME280;43499;52.366;12.912;2023-05-25T01:05:05;102025.13;;;8.30;97.76
57668;BME280;43499;52.366;12.912;2023-05-25T01:06:10;102025.88;;;8.29;97.42
57668;BME280;43499;52.366;12.912;2023-05-25T01:07:20;102019.03;;;8.23;97.67
57668;BME280;43499;52.366;12.912;2023-05-25T01:08:23;102008.94;;;8.18;98.01
57668;BME280;43499;52.366;12.912;2023-05-25T01:09:27;102003.03;;;8.12;97.63
57668;BME280;43499;52.366;12.912;2023-05-25T01:10:31;102010.31;;;8.15;98.07
57668;BME280;43499;52.366;12.912;2023-05-25T01:11:37;102028.91;;;8.25;98.20
57668;BME280;43499;52.366;12.912;2023-05-25T01:12:41;102012.75;;;8.13;98.54
57668;BME280;43499;52.366;12.912;2023-05-25T01:13:44;101999.31;;;8.10;98.02
57668;BME280;43499;52.366;12.912;2023-05-25T01:14:46;102006.06;;;8.08;97.71
57668;BME280;43499;52.366;12.912;2023-05-25T01:15:48;102024.66;;;8.18;98.19
57668;BME280;43499;52.366;12.912;2023-05-25T01:16:51;102006.50;;;8.04;98.63
57668;BME280;43499;52.366;12.912;2023-05-25T01:17:52;102026.25;;;8.09;98.54
57668;BME280;43499;52.366;12.912;2023-05-25T01:18:59;102018.50;;;8.02;98.87
57668;BME280;43499;52.366;12.912;2023-05-25T01:20:00;102017.38;;;8.00;99.33
57668;BME280;43499;52.366;12.912;2023-05-25T01:22:27;102038.25;;;8.07;99.15
57668;BME280;43499;52.366;12.912;2023-05-25T01:23:32;102034.72;;;8.07;99.82
57668;BME280;43499;52.366;12.912;2023-05-25T01:24:47;102039.34;;;8.09;99.41
57668;BME280;43499;52.366;12.912;2023-05-25T01:25:52;102027.50;;;7.97;99.37
57668;BME280;43499;52.366;12.912;2023-05-25T01:27:22;102034.78;;;7.99;99.35
57668;BME280;43499;52.366;12.912;2023-05-25T01:28:28;102031.63;;;7.95;99.73
57668;BME280;43499;52.366;12.912;2023-05-25T01:29:32;102034.59;;;7.98;99.59
57668;BME280;43499;52.366;12.912;2023-05-25T01:30:35;102021.84;;;7.85;99.66
57668;BME280;43499;52.366;12.912;2023-05-25T01:31:40;102021.59;;;7.91;99.98
57668;BME280;43499;52.366;12.912;2023-05-25T01:32:42;101982.69;;;7.70;100.00
57668;BME280;43499;52.366;12.912;2023-05-25T01:33:44;102039.34;;;8.09;100.00
57668;BME280;43499;52.366;12.912;2023-05-25T01:34:47;102041.06;;;8.09;99.68
57668;BME280;43499;52.366;12.912;2023-05-25T01:35:48;102040.72;;;8.06;100.00
57668;BME280;43499;52.366;12.912;2023-05-25T01:36:50;102034.34;;;8.03;99.30
57668;BME280;43499;52.366;12.912;2023-05-25T01:37:52;101983.78;;;7.72;99.75
57668;BME280;43499;52.366;12.912;2023-05-25T01:38:53;102022.09;;;7.95;99.73
57668;BME280;43499;52.366;12.912;2023-05-25T01:39:54;102037.72;;;8.02;99.88
57668;BME280;43499;52.366;12.912;2023-05-25T01:40:55;102047.28;;;8.02;99.77
57668;BME280;43499;52.366;12.912;2023-05-25T01:41:56;102045.03;;;8.05;99.64
57668;BME280;43499;52.366;12.912;2023-05-25T01:42:57;102034.56;;;8.05;99.74
57668;BME280;43499;52.366;12.912;2023-05-25T01:43:59;102036.97;;;8.03;99.84
57668;BME280;43499;52.366;12.912;2023-05-25T01:45:00;102004.66;;;7.80;99.28
57668;BME280;43499;52.366;12.912;2023-05-25T01:46:13;102036.63;;;8.00;99.81
57668;BME280;43499;52.366;12.912;2023-05-25T01:47:28;102047.06;;;8.08;99.38
57668;BME280;43499;52.366;12.912;2023-05-25T01:48:51;102005.78;;;7.82;99.61
57668;BME280;43499;52.366;12.912;2023-05-25T01:50:16;102028.84;;;7.93;99.96
57668;BME280;43499;52.366;12.912;2023-05-25T01:51:31;102050.81;;;8.02;99.60
57668;BME280;43499;52.366;12.912;2023-05-25T01:52:49;102022.94;;;7.87;99.58
57668;BME280;43499;52.366;12.912;2023-05-25T01:53:57;102043.22;;;7.97;100.00
57668;BME280;43499;52.366;12.912;2023-05-25T01:55:05;102007.63;;;7.83;100.00
57668;BME280;43499;52.366;12.912;2023-05-25T01:56:10;102034.44;;;7.96;99.71
57668;BME280;43499;52.366;12.912;2023-05-25T01:57:14;102035.94;;;7.94;100.00
57668;BME280;43499;52.366;12.912;2023-05-25T01:58:19;102019.97;;;7.84;100.00
57668;BME280;43499;52.366;12.912;2023-05-25T01:59:22;102042.09;;;7.95;100.00
57668;BME280;43499;52.366;12.912;2023-05-25T02:00:27;102035.03;;;7.94;100.00
57668;BME280;43499;52.366;12.912;2023-05-25T02:01:32;102038.41;;;7.93;100.00
57668;BME280;43499;52.366;12.912;2023-05-25T02:02:34;102035.44;;;7.90;100.00
57668;BME280;43499;52.366;12.912;2023-05-25T02:03:36;102032.97;;;7.91;100.00
57668;BME280;43499;52.366;12.912;2023-05-25T02:04:38;101998.00;;;7.75;100.00
57668;BME280;43499;52.366;12.912;2023-05-25T02:05:43;102037.97;;;7.97;100.00
57668;BME280;43499;52.366;12.912;2023-05-25T02:06:47;102031.63;;;7.95;99.85
57668;BME280;43499;52.366;12.912;2023-05-25T02:07:48;102011.75;;;7.81;100.00
57668;BME280;43499;52.366;12.912;2023-05-25T02:08:49;102020.88;;;7.84;100.00
57668;BME280;43499;52.366;12.912;2023-05-25T02:09:50;102025.25;;;7.77;99.99
57668;BME280;43499;52.366;12.912;2023-05-25T02:10:51;102025.78;;;7.81;100.00
57668;BME280;43499;52.366;12.912;2023-05-25T02:11:52;102005.34;;;7.70;100.00
57668;BME280;43499;52.366;12.912;2023-05-25T02:12:54;102003.47;;;7.69;100.00
57668;BME280;43499;52.366;12.912;2023-05-25T02:13:55;102016.31;;;7.75;100.00
57668;BME280;43499;52.366;12.912;2023-05-25T02:14:56;101990.09;;;7.59;100.00
57668;BME280;43499;52.366;12.912;2023-05-25T02:15:57;101999.78;;;7.60;100.00
57668;BME280;43499;52.366;12.912;2023-05-25T02:16:58;102014.69;;;7.68;100.00
57668;BME280;43499;52.366;12.912;2023-05-25T02:18:01;102019.16;;;7.69;100.00
57668;BME280;43499;52.366;12.912;2023-05-25T02:19:04;102020.69;;;7.67;100.00
57668;BME280;43499;52.366;12.912;2023-05-25T02:20:06;102024.03;;;7.66;100.00
57668;BME280;43499;52.366;12.912;2023-05-25T02:21:07;102017.88;;;7.65;100.00
57668;BME280;43499;52.366;12.912;2023-05-25T02:22:09;102009.50;;;7.61;100.00
57668;BME280;43499;52.366;12.912;2023-05-25T02:23:10;101998.00;;;7.51;100.00
57668;BME280;43499;52.366;12.912;2023-05-25T02:24:12;102009.34;;;7.59;100.00
57668;BME280;43499;52.366;12.912;2023-05-25T02:25:13;102022.94;;;7.64;100.00
57668;BME280;43499;52.366;12.912;2023-05-25T02:26:14;102014.22;;;7.56;100.00
57668;BME280;43499;52.366;12.912;2023-05-25T02:27:16;102024.56;;;7.70;100.00
57668;BME280;43499;52.366;12.912;2023-05-25T02:28:18;102032.81;;;7.66;100.00
57668;BME280;43499;52.366;12.912;2023-05-25T02:29:19;102034.91;;;7.62;100.00
57668;BME280;43499;52.366;12.912;2023-05-25T02:30:20;102023.75;;;7.55;100.00
57668;BME280;43499;52.366;12.912;2023-05-25T02:31:21;102007.81;;;7.38;100.00
57668;BME280;43499;52.366;12.912;2023-05-25T02:32:22;102034.59;;;7.59;100.00
57668;BME280;43499;52.366;12.912;2023-05-25T02:33:24;102004.22;;;7.45;100.00
57668;BME280;43499;52.366;12.912;2023-05-25T02:34:25;102031.59;;;7.55;100.00
57668;BME280;43499;52.366;12.912;2023-05-25T02:35:26;102021.38;;;7.50;100.00
57668;BME280;43499;52.366;12.912;2023-05-25T02:36:28;101998.69;;;7.34;100.00
57668;BME280;43499;52.366;12.912;2023-05-25T02:37:29;102035.13;;;7.56;100.00
57668;BME280;43499;52.366;12.912;2023-05-25T02:38:30;102020.63;;;7.51;100.00
57668;BME280;43499;52.366;12.912;2023-05-25T02:39:31;102011.72;;;7.41;100.00
57668;BME280;43499;52.366;12.912;2023-05-25T02:40:33;102035.91;;;7.55;100.00
57668;BME280;43499;52.366;12.912;2023-05-25T02:41:34;102030.34;;;7.52;100.00
57668;BME280;43499;52.366;12.912;2023-05-25T02:42:35;102026.75;;;7.51;100.00
57668;BME280;43499;52.366;12.912;2023-05-25T02:43:36;102021.75;;;7.46;100.00
57668;BME280;43499;52.366;12.912;2023-05-25T02:44:37;102030.13;;;7.50;100.00
57668;BME280;43499;52.366;12.912;2023-05-25T02:45:38;102013.03;;;7.38;100.00
57668;BME280;43499;52.366;12.912;2023-05-25T02:46:39;102041.56;;;7.51;100.00
57668;BME280;43499;52.366;12.912;2023-05-25T02:47:40;102021.59;;;7.44;100.00
57668;BME280;43499;52.366;12.912;2023-05-25T02:48:42;102031.25;;;7.52;100.00
57668;BME280;43499;52.366;12.912;2023-05-25T02:49:44;102024.50;;;7.54;100.00
57668;BME280;43499;52.366;12.912;2023-05-25T02:50:45;101999.94;;;7.38;100.00
57668;BME280;43499;52.366;12.912;2023-05-25T02:51:48;102031.41;;;7.54;100.00
57668;BME280;43499;52.366;12.912;2023-05-25T02:52:49;102003.69;;;7.40;100.00
57668;BME280;43499;52.366;12.912;2023-05-25T02:53:50;102012.06;;;7.45;100.00
57668;BME280;43499;52.366;12.912;2023-05-25T02:54:51;102031.41;;;7.54;100.00
57668;BME280;43499;52.366;12.912;2023-05-25T02:55:58;102029.38;;;7.51;100.00
57668;BME280;43499;52.366;12.912;2023-05-25T02:57:05;102005.94;;;7.37;100.00
57668;BME280;43499;52.366;12.912;2023-05-25T02:58:08;102036.88;;;7.48;100.00
57668;BME280;43499;52.366;12.912;2023-05-25T02:59:27;102030.84;;;7.56;100.00
57668;BME280;43499;52.366;12.912;2023-05-25T03:00:28;102010.38;;;7.45;100.00
57668;BME280;43499;52.366;12.912;2023-05-25T03:01:30;102039.97;;;7.60;100.00
57668;BME280;43499;52.366;12.912;2023-05-25T03:02:32;102035.56;;;7.52;100.00
57668;BME280;43499;52.366;12.912;2023-05-25T03:03:33;102042.44;;;7.59;100.00
57668;BME280;43499;52.366;12.912;2023-05-25T03:04:34;102038.72;;;7.56;100.00
57668;BME280;43499;52.366;12.912;2023-05-25T03:05:37;102042.81;;;7.54;100.00
57668;BME280;43499;52.366;12.912;2023-05-25T03:06:38;101998.16;;;7.30;100.00
57668;BME280;43499;52.366;12.912;2023-05-25T03:07:46;102038.72;;;7.49;100.00
57668;BME280;43499;52.366;12.912;2023-05-25T03:08:48;101995.00;;;7.25;100.00
57668;BME280;43499;52.366;12.912;2023-05-25T03:09:49;102039.31;;;7.47;100.00
57668;BME280;43499;52.366;12.912;2023-05-25T03:10:50;102025.19;;;7.37;100.00
57668;BME280;43499;52.366;12.912;2023-05-25T03:11:51;102021.25;;;7.41;100.00
57668;BME280;43499;52.366;12.912;2023-05-25T03:12:54;102045.84;;;7.50;100.00
57668;BME280;43499;52.366;12.912;2023-05-25T03:13:55;102049.19;;;7.49;100.00
57668;BME280;43499;52.366;12.912;2023-05-25T03:14:57;102044.16;;;7.51;100.00
57668;BME280;43499;52.366;12.912;2023-05-25T03:15:58;102034.09;;;7.47;100.00
57668;BME280;43499;52.366;12.912;2023-05-25T03:16:59;102037.06;;;7.50;100.00
57668;BME280;43499;52.366;12.912;2023-05-25T03:18:01;102046.03;;;7.52;100.00
57668;BME280;43499;52.366;12.912;2023-05-25T03:19:05;102036.13;;;7.49;100.00
57668;BME280;43499;52.366;12.912;2023-05-25T03:20:09;102035.44;;;7.43;100.00
57668;BME280;43499;52.366;12.912;2023-05-25T03:21:14;102027.75;;;7.45;100.00
57668;BME280;43499;52.366;12.912;2023-05-25T03:22:15;102050.28;;;7.59;100.00
57668;BME280;43499;52.366;12.912;2023-05-25T03:23:16;102046.56;;;7.56;100.00
57668;BME280;43499;52.366;12.912;2023-05-25T03:24:17;102057.53;;;7.61;100.00
57668;BME280;43499;52.366;12.912;2023-05-25T03:25:18;102055.09;;;7.63;100.00
57668;BME280;43499;52.366;12.912;2023-05-25T03:26:19;102049.69;;;7.61;100.00
57668;BME280;43499;52.366;12.912;2023-05-25T03:27:23;102052.66;;;7.64;100.00
57668;BME280;43499;52.366;12.912;2023-05-25T03:28:24;102050.06;;;7.64;100.00
57668;BME280;43499;52.366;12.912;2023-05-25T03:29:26;102053.19;;;7.69;100.00
57668;BME280;43499;52.366;12.912;2023-05-25T03:30:27;102053.94;;;7.68;100.00
57668;BME280;43499;52.366;12.912;2023-05-25T03:31:29;102047.22;;;7.70;100.00
57668;BME280;43499;52.366;12.912;2023-05-25T03:32:30;102059.72;;;7.65;100.00
57668;BME280;43499;52.366;12.912;2023-05-25T03:33:32;102032.94;;;7.52;100.00
57668;BME280;43499;52.366;12.912;2023-05-25T03:34:33;102057.13;;;7.65;100.00
57668;BME280;43499;52.366;12.912;2023-05-25T03:35:35;102050.06;;;7.64;100.00
57668;BME280;43499;52.366;12.912;2023-05-25T03:36:36;102055.44;;;7.66;100.00
57668;BME280;43499;52.366;12.912;2023-05-25T03:37:39;102002.56;;;7.38;100.00
57668;BME280;43499;52.366;12.912;2023-05-25T03:38:42;102041.66;;;7.60;100.00
57668;BME280;43499;52.366;12.912;2023-05-25T03:39:43;102064.41;;;7.68;100.00
57668;BME280;43499;52.366;12.912;2023-05-25T03:40:44;102059.94;;;7.67;100.00
57668;BME280;43499;52.366;12.912;2023-05-25T03:41:45;102043.75;;;7.55;100.00
57668;BME280;43499;52.366;12.912;2023-05-25T03:42:47;102049.16;;;7.56;100.00
57668;BME280;43499;52.366;12.912;2023-05-25T03:43:48;102052.34;;;7.54;100.00
57668;BME280;43499;52.366;12.912;2023-05-25T03:44:49;102045.28;;;7.53;100.00
57668;BME280;43499;52.366;12.912;2023-05-25T03:45:50;102061.78;;;7.68;100.00
57668;BME280;43499;52.366;12.912;2023-05-25T03:46:51;102044.63;;;7.63;100.00
57668;BME280;43499;52.366;12.912;2023-05-25T03:47:52;102045.56;;;7.63;100.00
57668;BME280;43499;52.366;12.912;2023-05-25T03:48:54;102071.06;;;7.80;100.00
57668;BME280;43499;52.366;12.912;2023-05-25T03:49:56;102039.00;;;7.67;100.00
57668;BME280;43499;52.366;12.912;2023-05-25T03:50:57;102065.97;;;7.82;100.00
57668;BME280;43499;52.366;12.912;2023-05-25T03:51:58;102065.00;;;7.88;100.00
57668;BME280;43499;52.366;12.912;2023-05-25T03:53:01;102055.84;;;7.85;100.00
57668;BME280;43499;52.366;12.912;2023-05-25T03:54:02;102063.28;;;7.89;100.00
57668;BME280;43499;52.366;12.912;2023-05-25T03:55:05;102066.47;;;7.94;100.00
57668;BME280;43499;52.366;12.912;2023-05-25T03:56:06;102058.75;;;7.95;100.00
57668;BME280;43499;52.366;12.912;2023-05-25T03:57:07;102072.88;;;8.05;100.00
57668;BME280;43499;52.366;12.912;2023-05-25T03:58:08;102046.94;;;7.99;100.00
57668;BME280;43499;52.366;12.912;2023-05-25T03:59:14;102068.13;;;8.16;100.00
57668;BME280;43499;52.366;12.912;2023-05-25T04:00:15;102071.91;;;8.27;100.00
57668;BME280;43499;52.366;12.912;2023-05-25T04:01:17;102056.59;;;8.23;100.00
57668;BME280;43499;52.366;12.912;2023-05-25T04:02:18;102048.19;;;8.26;100.00
57668;BME280;43499;52.366;12.912;2023-05-25T04:03:19;102074.19;;;8.47;100.00
57668;BME280;43499;52.366;12.912;2023-05-25T04:04:20;102078.19;;;8.60;100.00
57668;BME280;43499;52.366;12.912;2023-05-25T04:05:21;102043.25;;;8.52;100.00
57668;BME280;43499;52.366;12.912;2023-05-25T04:06:23;102083.41;;;8.76;99.49
57668;BME280;43499;52.366;12.912;2023-05-25T04:07:25;102045.00;;;8.60;98.98
57668;BME280;43499;52.366;12.912;2023-05-25T04:08:29;102084.56;;;8.87;98.38
57668;BME280;43499;52.366;12.912;2023-05-25T04:09:32;102078.06;;;8.99;98.67
57668;BME280;43499;52.366;12.912;2023-05-25T04:10:33;102073.91;;;9.01;97.32
57668;BME280;43499;52.366;12.912;2023-05-25T04:11:34;102062.66;;;9.02;97.16
57668;BME280;43499;52.366;12.912;2023-05-25T04:12:35;102046.78;;;9.01;96.89
57668;BME280;43499;52.366;12.912;2023-05-25T04:13:36;102067.72;;;9.17;96.23
57668;BME280;43499;52.366;12.912;2023-05-25T04:14:40;102041.31;;;9.15;96.37
57668;BME280;43499;52.366;12.912;2023-05-25T04:15:42;102055.59;;;9.26;96.21
57668;BME280;43499;52.366;12.912;2023-05-25T04:16:48;102059.06;;;9.34;96.02
57668;BME280;43499;52.366;12.912;2023-05-25T04:17:50;102076.59;;;9.51;95.87
57668;BME280;43499;52.366;12.912;2023-05-25T04:18:51;102075.44;;;9.65;94.66
57668;BME280;43499;52.366;12.912;2023-05-25T04:19:52;102072.72;;;9.72;93.78
57668;BME280;43499;52.366;12.912;2023-05-25T04:20:53;102079.53;;;9.79;93.48
57668;BME280;43499;52.366;12.912;2023-05-25T04:21:57;102086.34;;;9.85;93.28
57668;BME280;43499;52.366;12.912;2023-05-25T04:22:58;102079.28;;;9.93;93.45
57668;BME280;43499;52.366;12.912;2023-05-25T04:23:59;102083.97;;;10.04;92.61
57668;BME280;43499;52.366;12.912;2023-05-25T04:25:01;102080.78;;;10.16;91.82
57668;BME280;43499;52.366;12.912;2023-05-25T04:26:02;102079.22;;;10.09;91.39
57668;BME280;43499;52.366;12.912;2023-05-25T04:27:03;102074.44;;;10.14;91.87
57668;BME280;43499;52.366;12.912;2023-05-25T04:28:05;102060.41;;;10.22;91.73
57668;BME280;43499;52.366;12.912;2023-05-25T04:29:43;102076.53;;;10.34;91.83
57668;BME280;43499;52.366;12.912;2023-05-25T04:30:57;102068.00;;;10.28;91.31
57668;BME280;43499;52.366;12.912;2023-05-25T04:32:07;102080.84;;;10.33;90.86
57668;BME280;43499;52.366;12.912;2023-05-25T04:33:25;102083.41;;;10.49;91.04
57668;BME280;43499;52.366;12.912;2023-05-25T04:34:52;102097.53;;;10.68;90.06
57668;BME280;43499;52.366;12.912;2023-05-25T04:36:06;102095.06;;;10.78;89.72
57668;BME280;43499;52.366;12.912;2023-05-25T04:37:11;102092.91;;;10.83;88.64
57668;BME280;43499;52.366;12.912;2023-05-25T04:38:15;102094.28;;;10.96;88.21
57668;BME280;43499;52.366;12.912;2023-05-25T04:39:17;102094.75;;;11.01;87.79
57668;BME280;43499;52.366;12.912;2023-05-25T04:40:23;102090.41;;;11.10;87.72
57668;BME280;43499;52.366;12.912;2023-05-25T04:41:24;102093.81;;;11.18;87.02
57668;BME280;43499;52.366;12.912;2023-05-25T04:42:28;102082.84;;;11.14;86.37
57668;BME280;43499;52.366;12.912;2023-05-25T04:43:30;102084.22;;;11.27;86.68
57668;BME280;43499;52.366;12.912;2023-05-25T04:44:32;102079.13;;;11.29;85.73
57668;BME280;43499;52.366;12.912;2023-05-25T04:45:33;102098.78;;;11.50;85.34
57668;BME280;43499;52.366;12.912;2023-05-25T04:46:34;102098.00;;;11.42;84.97
57668;BME280;43499;52.366;12.912;2023-05-25T04:47:38;102079.72;;;11.44;85.24
57668;BME280;43499;52.366;12.912;2023-05-25T04:48:40;102076.00;;;11.51;85.01
57668;BME280;43499;52.366;12.912;2023-05-25T04:49:42;102090.97;;;11.69;84.70
57668;BME280;43499;52.366;12.912;2023-05-25T04:50:43;102084.78;;;11.78;83.42
57668;BME280;43499;52.366;12.912;2023-05-25T04:51:44;102095.91;;;11.84;82.95
57668;BME280;43499;52.366;12.912;2023-05-25T04:52:45;102089.38;;;11.89;82.43
57668;BME280;43499;52.366;12.912;2023-05-25T04:53:46;102083.69;;;11.76;82.27
57668;BME280;43499;52.366;12.912;2023-05-25T04:54:47;102082.91;;;11.77;82.67
57668;BME280;43499;52.366;12.912;2023-05-25T04:55:50;102087.81;;;12.00;82.44
57668;BME280;43499;52.366;12.912;2023-05-25T04:56:51;102098.22;;;11.98;81.65
57668;BME280;43499;52.366;12.912;2023-05-25T04:57:53;102063.97;;;11.81;81.86
57668;BME280;43499;52.366;12.912;2023-05-25T04:58:54;102075.25;;;11.97;82.48
57668;BME280;43499;52.366;12.912;2023-05-25T04:59:56;102069.81;;;12.04;81.28
57668;BME280;43499;52.366;12.912;2023-05-25T05:00:58;102080.31;;;12.13;80.86
57668;BME280;43499;52.366;12.912;2023-05-25T05:01:59;102096.69;;;12.28;81.49
57668;BME280;43499;52.366;12.912;2023-05-25T05:03:01;102080.97;;;12.39;80.28
57668;BME280;43499;52.366;12.912;2023-05-25T05:04:02;102084.44;;;12.57;79.94
57668;BME280;43499;52.366;12.912;2023-05-25T05:05:03;102083.91;;;12.70;79.46
57668;BME280;43499;52.366;12.912;2023-05-25T05:06:04;102089.16;;;12.89;78.99
57668;BME280;43499;52.366;12.912;2023-05-25T05:07:06;102074.69;;;12.94;78.68
57668;BME280;43499;52.366;12.912;2023-05-25T05:08:08;102083.19;;;13.00;77.94
57668;BME280;43499;52.366;12.912;2023-05-25T05:09:09;102091.25;;;13.02;78.21
57668;BME280;43499;52.366;12.912;2023-05-25T05:10:11;102091.56;;;12.58;79.11
57668;BME280;43499;52.366;12.912;2023-05-25T05:11:16;102070.84;;;12.43;79.86
57668;BME280;43499;52.366;12.912;2023-05-25T05:12:18;102069.03;;;12.42;80.37
57668;BME280;43499;52.366;12.912;2023-05-25T05:13:24;102069.97;;;12.62;80.10
57668;BME280;43499;52.366;12.912;2023-05-25T05:14:26;102081.53;;;12.73;78.84
57668;BME280;43499;52.366;12.912;2023-05-25T05:15:27;102087.16;;;12.86;79.13
57668;BME280;43499;52.366;12.912;2023-05-25T05:16:28;102091.38;;;12.84;78.56
57668;BME280;43499;52.366;12.912;2023-05-25T05:17:33;102081.34;;;12.99;79.23
57668;BME280;43499;52.366;12.912;2023-05-25T05:18:34;102078.13;;;13.12;78.57
57668;BME280;43499;52.366;12.912;2023-05-25T05:19:36;102078.72;;;12.99;79.33
57668;BME280;43499;52.366;12.912;2023-05-25T05:20:38;102082.75;;;13.15;78.72
57668;BME280;43499;52.366;12.912;2023-05-25T05:21:39;102074.63;;;13.22;78.03
57668;BME280;43499;52.366;12.912;2023-05-25T05:22:41;102085.69;;;13.37;78.02
57668;BME280;43499;52.366;12.912;2023-05-25T05:23:43;102084.91;;;13.57;77.28
57668;BME280;43499;52.366;12.912;2023-05-25T05:24:44;102079.44;;;13.55;76.67
57668;BME280;43499;52.366;12.912;2023-05-25T05:25:48;102096.75;;;13.52;76.92
57668;BME280;43499;52.366;12.912;2023-05-25T05:26:51;102061.78;;;13.16;77.38
57668;BME280;43499;52.366;12.912;2023-05-25T05:27:52;102097.09;;;13.46;77.17